Time;durP1;ratioP1;P1;durP2;ratioP2;P2;SDS_P1;SDS_P2;PMS_P1;PMS_P2;Temp;Humidity;BMP_temperature;BMP_pressure;BME280_temperature;BME280_humidity;BME280_pressure;Samples;Min_cycle;Max_cycle;Signal;HPM_P1;HPM_P2
2024/03/06 00:00:16;;;;;;;13.13;7.37;;;8.70;99.90;;;;;;4163168;28;20484;-56
2024/03/06 00:02:17;;;;;;;14.63;7.77;;;8.70;99.90;;;;;;4161839;28;20551;-58
2024/03/06 00:04:19;;;;;;;12.60;8.33;;;8.70;99.90;;;;;;4163438;28;20045;-59
2024/03/06 00:06:20;;;;;;;10.27;6.87;;;8.70;99.90;;;;;;4161629;28;20461;-55
2024/03/06 00:08:21;;;;;;;9.43;6.70;;;8.70;99.90;;;;;;4162998;28;20041;-56
2024/03/06 00:10:22;;;;;;;11.60;6.57;;;8.70;99.90;;;;;;4161871;28;20115;-53
2024/03/06 00:12:24;;;;;;;13.33;7.10;;;8.70;99.90;;;;;;4163139;28;20556;-58
2024/03/06 00:14:25;;;;;;;10.50;7.10;;;8.70;99.90;;;;;;4161760;28;20061;-54
2024/03/06 00:16:26;;;;;;;13.33;7.97;;;8.70;99.90;;;;;;4163169;28;20060;-58
2024/03/06 00:18:28;;;;;;;11.17;6.90;;;8.60;99.90;;;;;;4162347;28;20021;-59
2024/03/06 00:20:29;;;;;;;9.23;6.47;;;8.60;99.90;;;;;;4160891;28;20119;-59
2024/03/06 00:22:31;;;;;;;11.40;7.20;;;8.60;99.90;;;;;;4162439;28;20383;-60
2024/03/06 00:24:32;;;;;;;10.07;6.73;;;8.60;99.90;;;;;;4161492;28;20431;-58
2024/03/06 00:26:34;;;;;;;10.93;6.20;;;8.60;99.90;;;;;;4162354;28;20041;-59
2024/03/06 00:28:35;;;;;;;9.50;6.63;;;8.50;99.90;;;;;;4161255;28;20046;-56
2024/03/06 00:30:36;;;;;;;11.00;7.23;;;8.50;99.90;;;;;;4162660;28;20095;-56
2024/03/06 00:32:37;;;;;;;11.77;7.47;;;8.50;99.90;;;;;;4161979;28;20045;-58
2024/03/06 00:34:39;;;;;;;11.07;6.80;;;8.40;99.90;;;;;;4163457;28;20041;-56
2024/03/06 00:36:41;;;;;;;10.50;6.13;;;8.30;99.90;;;;;;4161849;28;20038;-56
2024/03/06 00:38:43;;;;;;;11.10;6.90;;;8.30;99.90;;;;;;4161449;28;20103;-58
2024/03/06 00:40:44;;;;;;;9.90;6.57;;;8.30;99.90;;;;;;4159761;28;20075;-55
2024/03/06 00:42:45;;;;;;;11.30;6.63;;;8.20;99.90;;;;;;4162718;28;20096;-57
2024/03/06 00:44:46;;;;;;;12.27;7.17;;;8.20;99.90;;;;;;4161143;28;20440;-59
2024/03/06 00:46:48;;;;;;;9.77;6.53;;;8.20;99.90;;;;;;4162264;28;20091;-60
2024/03/06 00:48:50;;;;;;;10.67;5.77;;;8.10;99.90;;;;;;4162215;28;20025;-56
2024/03/06 00:50:51;;;;;;;12.00;6.73;;;8.10;99.90;;;;;;4161704;28;20038;-59
2024/03/06 00:52:52;;;;;;;12.17;6.70;;;8.10;99.90;;;;;;4162022;28;20049;-58
2024/03/06 00:54:53;;;;;;;14.07;7.30;;;8.10;99.90;;;;;;4161461;28;20053;-56
2024/03/06 00:56:54;;;;;;;13.00;6.70;;;8.10;99.90;;;;;;4161618;28;20448;-58
2024/03/06 00:58:56;;;;;;;12.80;8.00;;;8.10;99.90;;;;;;4161031;28;20049;-58
2024/03/06 01:00:58;;;;;;;12.83;8.47;;;8.00;99.90;;;;;;4161815;28;20045;-57
2024/03/06 01:02:59;;;;;;;15.90;9.03;;;8.00;99.90;;;;;;4161344;28;20083;-55
2024/03/06 01:05:03;;;;;;;167.17;59.83;;;7.90;99.90;;;;;;4162081;28;20037;-59
2024/03/06 01:07:04;;;;;;;85.87;33.80;;;7.90;99.90;;;;;;4160344;28;20049;-58
2024/03/06 01:09:06;;;;;;;93.43;35.30;;;8.00;99.90;;;;;;4161932;28;20041;-57
2024/03/06 01:11:08;;;;;;;118.37;41.10;;;8.20;99.90;;;;;;4160744;28;20034;-58
2024/03/06 01:13:10;;;;;;;18.73;8.30;;;8.30;99.90;;;;;;4161686;28;20042;-58
2024/03/06 01:15:12;;;;;;;13.93;7.70;;;8.40;99.90;;;;;;4161417;28;20049;-59
2024/03/06 01:17:13;;;;;;;17.67;8.63;;;8.30;99.90;;;;;;4162179;28;20094;-56
2024/03/06 01:19:14;;;;;;;18.93;8.60;;;8.20;99.90;;;;;;4160287;28;20083;-52
2024/03/06 01:21:16;;;;;;;11.73;7.87;;;8.00;99.90;;;;;;4161557;28;20034;-56
2024/03/06 01:23:17;;;;;;;14.20;8.27;;;7.80;99.90;;;;;;4161432;28;20021;-60
2024/03/06 01:25:18;;;;;;;19.07;9.80;;;7.70;99.90;;;;;;4161007;28;20033;-54
2024/03/06 01:27:19;;;;;;;15.37;9.00;;;7.60;99.90;;;;;;4145606;28;20099;-59
2024/03/06 01:29:21;;;;;;;15.27;8.87;;;7.50;99.90;;;;;;4150570;28;20037;-56
2024/03/06 01:31:22;;;;;;;16.97;9.70;;;7.40;99.90;;;;;;4161518;28;20571;-58
2024/03/06 01:33:23;;;;;;;19.27;9.60;;;7.40;99.90;;;;;;4161136;28;20045;-58
2024/03/06 01:35:24;;;;;;;15.07;9.47;;;7.30;99.90;;;;;;4161138;28;20401;-55
2024/03/06 01:37:25;;;;;;;14.13;8.70;;;7.20;99.90;;;;;;4160015;28;20045;-57
2024/03/06 01:39:27;;;;;;;16.80;10.03;;;7.10;99.90;;;;;;4161410;28;20061;-57
2024/03/06 01:41:28;;;;;;;19.67;10.47;;;7.00;99.90;;;;;;4160142;28;20037;-54
2024/03/06 01:43:38;;;;;;;18.97;9.67;;;7.00;99.90;;;;;;4161819;28;20091;-58
2024/03/06 01:45:39;;;;;;;16.00;9.35;;;6.90;99.90;;;;;;4152548;28;20053;-58
2024/03/06 01:47:41;;;;;;;17.30;9.33;;;6.80;99.90;;;;;;4160954;28;20041;-58
2024/03/06 01:49:43;;;;;;;18.50;10.27;;;6.70;99.90;;;;;;4160218;28;20142;-59
2024/03/06 01:51:49;;;;;;;17.97;10.27;;;6.60;99.90;;;;;;4160632;28;20828;-57
2024/03/06 01:53:51;;;;;;;18.13;9.47;;;6.60;99.90;;;;;;4161346;28;20037;-59
2024/03/06 01:55:53;;;;;;;16.10;9.80;;;6.60;99.90;;;;;;4160038;28;20450;-49
2024/03/06 01:57:54;;;;;;;17.30;9.60;;;6.50;99.90;;;;;;4160049;28;20045;-55
2024/03/06 01:59:55;;;;;;;16.33;9.37;;;6.50;99.90;;;;;;4160678;28;20355;-54
2024/03/06 02:01:57;;;;;;;18.97;9.80;;;6.30;99.90;;;;;;4160319;28;20108;-58
2024/03/06 02:03:59;;;;;;;19.77;9.77;;;6.30;99.90;;;;;;4160457;28;20034;-57
2024/03/06 02:06:02;;;;;;;15.77;9.00;;;6.30;99.90;;;;;;4160668;28;20041;-57
2024/03/06 02:08:05;;;;;;;15.10;8.67;;;6.30;99.90;;;;;;4160839;28;20454;-56
2024/03/06 02:10:09;;;;;;;21.00;9.47;;;6.20;99.90;;;;;;4161284;28;20088;-57
2024/03/06 02:12:10;;;;;;;16.20;9.60;;;6.20;99.90;;;;;;4160564;28;20798;-57
2024/03/06 02:14:13;;;;;;;20.10;9.60;;;6.20;99.90;;;;;;4161054;28;20759;-58
2024/03/06 02:16:15;;;;;;;15.93;9.17;;;6.20;99.90;;;;;;4160215;28;20084;-57
2024/03/06 02:18:16;;;;;;;17.43;9.80;;;6.10;99.90;;;;;;4161557;28;20041;-55
2024/03/06 02:20:24;;;;;;;17.37;10.17;;;6.00;99.90;;;;;;4160134;28;20478;-57
2024/03/06 02:22:25;;;;;;;15.37;9.83;;;6.00;99.90;;;;;;4161136;28;20025;-58
2024/03/06 02:24:27;;;;;;;18.07;9.80;;;5.90;99.90;;;;;;4160486;28;20080;-58
2024/03/06 02:26:28;;;;;;;19.80;10.20;;;5.90;99.90;;;;;;4160313;28;20107;-58
2024/03/06 02:28:29;;;;;;;16.20;9.93;;;5.90;99.90;;;;;;4159826;28;20123;-57
2024/03/06 02:30:36;;;;;;;17.40;9.77;;;5.90;99.90;;;;;;4160275;28;20083;-58
2024/03/06 02:32:37;;;;;;;14.53;8.70;;;5.90;99.90;;;;;;4159704;28;20057;-55
2024/03/06 02:34:38;;;;;;;20.33;9.10;;;5.90;99.90;;;;;;4160831;28;20465;-59
2024/03/06 02:36:40;;;;;;;19.07;9.70;;;5.80;99.90;;;;;;4160895;28;20052;-52
2024/03/06 02:38:41;;;;;;;18.83;9.43;;;5.80;99.90;;;;;;4159584;28;20037;-58
2024/03/06 02:40:44;;;;;;;15.17;8.83;;;5.80;99.90;;;;;;4160518;28;20095;-54
2024/03/06 02:42:46;;;;;;;15.97;9.20;;;5.70;99.90;;;;;;4157665;28;20449;-57
2024/03/06 02:44:47;;;;;;;16.63;8.67;;;5.70;99.90;;;;;;4160548;28;20037;-56
2024/03/06 02:46:49;;;;;;;19.00;9.57;;;5.60;99.90;;;;;;4159557;28;20029;-58
2024/03/06 02:48:50;;;;;;;20.97;9.47;;;5.60;99.90;;;;;;4160823;28;20042;-54
2024/03/06 02:50:52;;;;;;;14.67;8.50;;;5.60;99.90;;;;;;4159387;28;20045;-57
2024/03/06 02:52:53;;;;;;;16.10;8.13;;;5.60;99.90;;;;;;4160808;28;20037;-58
2024/03/06 02:54:55;;;;;;;15.57;9.20;;;5.50;99.90;;;;;;4159342;28;20099;-58
2024/03/06 02:56:56;;;;;;;20.37;9.97;;;5.40;99.90;;;;;;4160686;28;20083;-57
2024/03/06 02:58:57;;;;;;;17.57;10.57;;;5.40;99.90;;;;;;4159921;28;20755;-58
2024/03/06 03:00:58;;;;;;;19.80;11.03;;;5.30;99.90;;;;;;4159656;28;20148;-58
2024/03/06 03:03:00;;;;;;;17.67;9.97;;;5.30;99.90;;;;;;4159917;28;20446;-56
2024/03/06 03:05:01;;;;;;;18.97;11.50;;;5.30;99.90;;;;;;4159561;28;20096;-56
2024/03/06 03:07:02;;;;;;;17.20;10.60;;;5.20;99.90;;;;;;4159218;28;20495;-59
2024/03/06 03:09:03;;;;;;;16.23;9.67;;;5.30;99.90;;;;;;4160074;28;20033;-57
2024/03/06 03:11:05;;;;;;;18.30;9.80;;;5.20;99.90;;;;;;4160079;28;20747;-55
2024/03/06 03:13:06;;;;;;;14.50;9.57;;;5.20;99.90;;;;;;4159113;28;20834;-58
2024/03/06 03:15:08;;;;;;;21.87;11.23;;;5.20;99.90;;;;;;4160897;28;20437;-54
2024/03/06 03:17:09;;;;;;;16.47;9.57;;;5.20;99.90;;;;;;4158600;28;20090;-58
2024/03/06 03:19:10;;;;;;;15.23;9.10;;;5.10;99.90;;;;;;4160641;28;20033;-58
2024/03/06 03:21:12;;;;;;;19.10;9.47;;;5.10;99.90;;;;;;4158056;28;20494;-57
2024/03/06 03:23:15;;;;;;;15.43;9.37;;;5.00;99.90;;;;;;4160095;28;20041;-53
2024/03/06 03:25:16;;;;;;;17.07;9.50;;;5.00;99.90;;;;;;4158890;28;20049;-55
2024/03/06 03:27:17;;;;;;;21.17;9.60;;;5.00;99.90;;;;;;4160903;28;20034;-54
2024/03/06 03:29:20;;;;;;;17.20;9.80;;;5.00;99.90;;;;;;4141249;28;20037;-56
2024/03/06 03:31:21;;;;;;;18.90;9.90;;;4.90;99.90;;;;;;4163399;28;20037;-58
2024/03/06 03:33:23;;;;;;;23.13;10.47;;;4.90;99.90;;;;;;4162233;28;20054;-52
2024/03/06 03:35:27;;;;;;;20.33;10.47;;;4.90;99.90;;;;;;4162541;28;20045;-54
2024/03/06 03:37:29;;;;;;;18.10;9.53;;;4.80;99.90;;;;;;4162391;28;20042;-61
2024/03/06 03:39:30;;;;;;;20.27;9.97;;;4.90;99.90;;;;;;4162363;28;20111;-56
2024/03/06 03:41:31;;;;;;;26.07;12.63;;;4.90;99.90;;;;;;4162208;28;20115;-57
2024/03/06 03:43:33;;;;;;;23.83;11.67;;;4.90;99.90;;;;;;4162235;28;20258;-54
2024/03/06 03:45:35;;;;;;;22.87;11.30;;;4.90;99.90;;;;;;4145331;28;20054;-59
2024/03/06 03:47:37;;;;;;;18.13;9.90;;;4.90;99.90;;;;;;4163050;28;20038;-57
2024/03/06 03:49:38;;;;;;;19.47;10.67;;;4.90;99.90;;;;;;4163533;28;20087;-55
2024/03/06 03:51:40;;;;;;;17.30;9.73;;;4.90;99.90;;;;;;4161539;28;20456;-54
2024/03/06 03:53:41;;;;;;;18.10;10.07;;;4.90;99.90;;;;;;4145259;28;20521;-58
2024/03/06 03:55:43;;;;;;;18.40;10.50;;;4.90;99.90;;;;;;4162300;28;20111;-59
2024/03/06 03:57:44;;;;;;;17.37;10.13;;;5.00;99.90;;;;;;4164116;28;20075;-57
2024/03/06 03:59:45;;;;;;;17.60;10.13;;;4.90;99.90;;;;;;4162193;28;20045;-58
2024/03/06 04:01:47;;;;;;;16.93;9.43;;;4.90;99.90;;;;;;4161819;28;20140;-55
2024/03/06 04:03:48;;;;;;;19.87;9.63;;;4.90;99.90;;;;;;4161830;28;20041;-53
2024/03/06 04:05:49;;;;;;;17.13;9.80;;;4.90;99.90;;;;;;4162231;28;20275;-60
2024/03/06 04:07:51;;;;;;;18.57;10.57;;;4.90;99.90;;;;;;4143542;28;20506;-58
2024/03/06 04:09:52;;;;;;;21.90;12.23;;;4.80;99.90;;;;;;4161733;28;20275;-57
2024/03/06 04:11:53;;;;;;;20.77;11.77;;;4.90;99.90;;;;;;4163041;28;20029;-54
2024/03/06 04:13:54;;;;;;;17.47;10.20;;;4.80;99.90;;;;;;4161748;28;20858;-57
2024/03/06 04:15:56;;;;;;;17.27;10.47;;;4.80;99.90;;;;;;4162921;28;20850;-54
2024/03/06 04:17:57;;;;;;;19.00;11.10;;;4.80;99.90;;;;;;4161580;28;20037;-55
2024/03/06 04:19:58;;;;;;;22.97;10.80;;;4.80;99.90;;;;;;4162124;28;20756;-59
2024/03/06 04:21:59;;;;;;;18.73;10.30;;;4.80;99.90;;;;;;4162026;28;20316;-58
2024/03/06 04:24:01;;;;;;;24.33;10.73;;;4.70;99.90;;;;;;4163441;28;20259;-59
2024/03/06 04:26:03;;;;;;;16.73;10.03;;;4.70;99.90;;;;;;4161285;28;20357;-56
2024/03/06 04:28:04;;;;;;;16.07;9.23;;;4.70;99.90;;;;;;4163389;28;20038;-58
2024/03/06 04:30:06;;;;;;;16.57;9.03;;;4.70;99.90;;;;;;4159937;28;20313;-57
2024/03/06 04:32:08;;;;;;;16.57;9.97;;;4.70;99.90;;;;;;4162309;28;20336;-58
2024/03/06 04:34:09;;;;;;;15.43;8.43;;;4.60;99.90;;;;;;4161187;28;20306;-58
2024/03/06 04:36:11;;;;;;;15.27;9.33;;;4.60;99.90;;;;;;4161508;28;20317;-59
2024/03/06 04:38:12;;;;;;;20.37;9.67;;;4.60;99.90;;;;;;4160763;28;20829;-58
2024/03/06 04:40:17;;;;;;;14.20;8.77;;;4.60;99.90;;;;;;4162601;28;20297;-58
2024/03/06 04:42:18;;;;;;;15.87;8.77;;;4.60;99.90;;;;;;4160052;28;20340;-57
2024/03/06 04:44:20;;;;;;;14.33;7.73;;;4.60;99.90;;;;;;4160981;28;20267;-60
2024/03/06 04:46:21;;;;;;;20.40;9.73;;;4.70;99.90;;;;;;4161176;28;20275;-57
2024/03/06 04:48:22;;;;;;;12.97;7.93;;;4.70;99.90;;;;;;4160294;28;20317;-58
2024/03/06 04:50:23;;;;;;;13.43;7.83;;;4.70;99.90;;;;;;4162150;28;20274;-58
2024/03/06 04:52:24;;;;;;;18.63;8.40;;;4.70;99.90;;;;;;4161092;28;20758;-61
2024/03/06 04:54:26;;;;;;;15.13;8.07;;;4.80;99.90;;;;;;4160904;28;20290;-56
2024/03/06 04:56:27;;;;;;;14.83;8.73;;;4.80;99.90;;;;;;4160824;28;20341;-61
2024/03/06 04:58:28;;;;;;;11.83;7.53;;;4.80;99.90;;;;;;4161662;28;20274;-57
2024/03/06 05:00:30;;;;;;;17.30;8.43;;;4.90;99.90;;;;;;4161610;28;20271;-57
2024/03/06 05:02:34;;;;;;;13.97;8.17;;;4.90;99.90;;;;;;4161628;28;20279;-59
2024/03/06 05:04:36;;;;;;;17.53;8.20;;;4.90;99.90;;;;;;4160852;28;20366;-63
2024/03/06 05:06:37;;;;;;;14.93;8.27;;;4.90;99.90;;;;;;4160957;28;20286;-62
2024/03/06 05:08:39;;;;;;;15.97;8.07;;;4.90;99.90;;;;;;4160581;28;20258;-58
2024/03/06 05:10:40;;;;;;;17.93;8.97;;;4.90;99.90;;;;;;4161448;28;20270;-61
2024/03/06 05:12:41;;;;;;;15.23;8.43;;;4.90;99.90;;;;;;4161482;28;20251;-59
2024/03/06 05:14:43;;;;;;;24.13;8.80;;;4.90;99.90;;;;;;4161724;28;20726;-61
2024/03/06 05:16:44;;;;;;;12.83;8.97;;;5.00;99.90;;;;;;4161067;28;20686;-58
2024/03/06 05:18:45;;;;;;;14.23;9.37;;;5.00;99.90;;;;;;4160588;28;20348;-59
2024/03/06 05:20:47;;;;;;;18.37;9.50;;;5.00;99.90;;;;;;4161852;28;20341;-57
2024/03/06 05:22:48;;;;;;;15.90;7.97;;;5.10;99.90;;;;;;4161108;28;20321;-59
2024/03/06 05:24:49;;;;;;;16.07;8.33;;;5.00;99.90;;;;;;4161780;28;20064;-57
2024/03/06 05:26:50;;;;;;;14.30;9.57;;;4.90;99.90;;;;;;4160613;28;20287;-58
2024/03/06 05:28:52;;;;;;;20.43;10.90;;;4.80;99.90;;;;;;4162263;28;20719;-57
2024/03/06 05:30:53;;;;;;;21.43;12.70;;;4.60;99.90;;;;;;4161082;28;20279;-58
2024/03/06 05:32:54;;;;;;;25.37;14.93;;;4.60;99.90;;;;;;4161930;28;20739;-61
2024/03/06 05:34:57;;;;;;;25.47;13.97;;;4.50;99.90;;;;;;4160824;28;20666;-62
2024/03/06 05:36:59;;;;;;;27.73;15.10;;;4.50;99.90;;;;;;4161543;28;20312;-57
2024/03/06 05:39:00;;;;;;;24.43;12.77;;;4.60;99.90;;;;;;4160353;28;20731;-57
2024/03/06 05:41:02;;;;;;;16.40;9.60;;;4.50;99.90;;;;;;4160889;28;20270;-59
2024/03/06 05:43:03;;;;;;;18.47;10.60;;;4.60;99.90;;;;;;4160544;28;20271;-58
2024/03/06 05:45:10;;;;;;;22.73;11.60;;;4.60;99.90;;;;;;4160112;28;20313;-59
2024/03/06 05:47:11;;;;;;;21.57;11.23;;;4.70;99.90;;;;;;4142828;28;20358;-58
2024/03/06 05:49:13;;;;;;;27.20;13.63;;;4.70;99.90;;;;;;4160278;28;20340;-52
2024/03/06 05:51:15;;;;;;;29.93;12.43;;;4.70;99.90;;;;;;4160368;28;20275;-58
2024/03/06 05:53:16;;;;;;;26.63;11.90;;;4.80;99.90;;;;;;4159370;28;20348;-57
2024/03/06 05:55:17;;;;;;;22.47;10.37;;;4.90;99.90;;;;;;4160824;28;20271;-55
2024/03/06 05:57:18;;;;;;;24.67;11.00;;;4.90;99.90;;;;;;4160455;28;20266;-56
2024/03/06 05:59:20;;;;;;;16.33;9.97;;;4.90;99.90;;;;;;4161019;28;20275;-55
2024/03/06 06:01:21;;;;;;;23.20;10.43;;;4.90;99.90;;;;;;4159596;28;20440;-58
2024/03/06 06:03:23;;;;;;;27.00;11.73;;;5.00;99.90;;;;;;4160868;28;20283;-59
2024/03/06 06:05:24;;;;;;;36.07;13.33;;;5.00;99.90;;;;;;4159375;28;20325;-53
2024/03/06 06:07:25;;;;;;;23.67;12.83;;;5.00;99.90;;;;;;4160914;28;20340;-58
2024/03/06 06:09:26;;;;;;;34.03;16.33;;;4.90;99.90;;;;;;4160513;28;20029;-56
2024/03/06 06:11:27;;;;;;;34.00;16.77;;;5.00;99.90;;;;;;4161224;28;20282;-58
2024/03/06 06:13:29;;;;;;;34.77;17.00;;;5.00;99.90;;;;;;4159770;28;20053;-57
2024/03/06 06:15:31;;;;;;;35.27;18.67;;;5.00;99.90;;;;;;4161002;28;20045;-56
2024/03/06 06:17:32;;;;;;;42.40;21.37;;;5.00;99.90;;;;;;4160782;28;20255;-56
2024/03/06 06:19:33;;;;;;;48.53;24.73;;;5.00;99.90;;;;;;4159886;28;20332;-58
2024/03/06 06:21:35;;;;;;;45.33;24.23;;;5.10;99.90;;;;;;4160906;28;20275;-57
2024/03/06 06:23:37;;;;;;;52.60;25.93;;;5.10;99.90;;;;;;4159096;28;20901;-59
2024/03/06 06:25:38;;;;;;;55.43;25.00;;;5.10;99.90;;;;;;4160874;28;20547;-58
2024/03/06 06:27:39;;;;;;;43.13;20.90;;;5.20;99.90;;;;;;4159285;28;20053;-57
2024/03/06 06:29:41;;;;;;;34.50;20.33;;;5.30;99.90;;;;;;4160866;28;20635;-55
2024/03/06 06:31:42;;;;;;;36.77;17.90;;;5.40;99.90;;;;;;4160245;28;20083;-56
2024/03/06 06:33:45;;;;;;;27.17;15.03;;;5.40;99.90;;;;;;4161065;28;20041;-52
2024/03/06 06:35:47;;;;;;;34.70;17.47;;;5.40;99.90;;;;;;4159182;28;20185;-57
2024/03/06 06:37:48;;;;;;;28.83;17.17;;;5.50;99.90;;;;;;4160686;28;20041;-57
2024/03/06 06:39:49;;;;;;;28.43;15.27;;;5.50;99.90;;;;;;4159190;28;20441;-57
2024/03/06 06:41:51;;;;;;;30.07;16.40;;;5.60;99.90;;;;;;4159843;28;20037;-58
2024/03/06 06:43:52;;;;;;;30.43;14.20;;;5.80;99.90;;;;;;4159297;28;20087;-57
2024/03/06 06:45:53;;;;;;;32.00;15.63;;;5.90;99.90;;;;;;4159527;28;20037;-56
2024/03/06 06:47:54;;;;;;;26.33;13.20;;;6.00;99.90;;;;;;4142118;28;20092;-57
2024/03/06 06:49:56;;;;;;;32.40;15.17;;;6.30;99.90;;;;;;4160282;28;20060;-59
2024/03/06 06:51:57;;;;;;;29.73;14.40;;;6.40;99.90;;;;;;4159951;28;20091;-58
2024/03/06 06:53:58;;;;;;;30.27;15.70;;;6.50;99.90;;;;;;4159034;28;20049;-59
2024/03/06 06:56:00;;;;;;;25.20;14.47;;;6.60;99.90;;;;;;4160761;28;20079;-60
2024/03/06 06:58:01;;;;;;;30.80;14.30;;;6.70;99.90;;;;;;4158755;28;20080;-59
2024/03/06 07:00:10;;;;;;;21.07;12.37;;;6.70;99.90;;;;;;4161165;28;20037;-59
2024/03/06 07:02:11;;;;;;;22.13;12.87;;;6.70;99.90;;;;;;4158856;28;20136;-61
2024/03/06 07:04:13;;;;;;;23.33;14.90;;;6.70;99.90;;;;;;4159088;28;20045;-61
2024/03/06 07:06:14;;;;;;;31.33;15.17;;;6.70;99.90;;;;;;4158916;28;20088;-60
2024/03/06 07:08:15;;;;;;;25.53;14.93;;;6.70;99.90;;;;;;4160168;28;20041;-61
2024/03/06 07:10:16;;;;;;;37.30;20.17;;;6.70;99.90;;;;;;4159446;28;20037;-61
2024/03/06 07:12:18;;;;;;;37.13;18.07;;;6.80;99.90;;;;;;4160899;28;20060;-62
2024/03/06 07:14:19;;;;;;;34.50;16.90;;;6.80;99.90;;;;;;4158972;28;20129;-56
2024/03/06 07:16:20;;;;;;;26.30;14.37;;;6.90;99.90;;;;;;4160687;28;20038;-61
2024/03/06 07:18:21;;;;;;;23.57;13.97;;;6.90;99.90;;;;;;4160089;28;20026;-61
2024/03/06 07:20:22;;;;;;;26.77;14.00;;;6.90;99.90;;;;;;4159074;28;20037;-60
2024/03/06 07:22:24;;;;;;;27.77;16.73;;;6.90;99.90;;;;;;4160304;28;20551;-60
2024/03/06 07:24:25;;;;;;;27.67;15.27;;;6.90;99.90;;;;;;4158904;28;20551;-61
2024/03/06 07:26:29;;;;;;;26.47;14.73;;;6.90;99.90;;;;;;4159604;28;20116;-60
2024/03/06 07:28:31;;;;;;;31.00;17.27;;;6.90;99.90;;;;;;4158731;28;20049;-58
2024/03/06 07:30:32;;;;;;;32.00;15.37;;;6.90;99.90;;;;;;4160178;28;20041;-57
2024/03/06 07:32:33;;;;;;;24.30;15.17;;;7.00;99.90;;;;;;4158849;28;20076;-58
2024/03/06 07:34:34;;;;;;;27.83;15.00;;;7.00;99.90;;;;;;4159648;28;20098;-59
2024/03/06 07:36:36;;;;;;;25.03;14.27;;;7.00;99.90;;;;;;4159809;28;20561;-63
2024/03/06 07:38:37;;;;;;;23.93;13.73;;;7.10;99.90;;;;;;4160888;28;20099;-60
2024/03/06 07:40:38;;;;;;;23.07;12.90;;;7.10;99.90;;;;;;4158720;28;20088;-54
2024/03/06 07:42:40;;;;;;;27.77;14.70;;;7.10;99.90;;;;;;4160908;28;20091;-63
2024/03/06 07:44:41;;;;;;;23.47;13.03;;;7.20;99.90;;;;;;4159542;28;20504;-58
2024/03/06 07:46:43;;;;;;;23.73;12.97;;;7.20;99.90;;;;;;4159449;28;20800;-60
2024/03/06 07:48:44;;;;;;;27.63;13.00;;;7.20;99.90;;;;;;4159226;28;20033;-59
2024/03/06 07:50:45;;;;;;;22.93;11.47;;;7.30;99.90;;;;;;4160033;28;20421;-58
2024/03/06 07:52:47;;;;;;;17.73;11.40;;;7.30;99.90;;;;;;4159257;28;20083;-58
2024/03/06 07:54:48;;;;;;;20.67;11.57;;;7.40;99.90;;;;;;4159698;28;20049;-61
2024/03/06 07:56:49;;;;;;;20.67;10.23;;;7.40;99.90;;;;;;4160088;28;20087;-59
2024/03/06 07:58:51;;;;;;;19.60;10.63;;;7.40;99.90;;;;;;4158237;28;20045;-61
2024/03/06 08:00:56;;;;;;;23.70;12.20;;;7.30;99.90;;;;;;4160324;28;20041;-60
2024/03/06 08:02:57;;;;;;;19.37;11.33;;;7.30;99.90;;;;;;4158415;28;20099;-60
2024/03/06 08:04:59;;;;;;;21.23;11.87;;;7.30;99.90;;;;;;4159692;28;20042;-62
2024/03/06 08:07:00;;;;;;;20.70;12.30;;;7.30;99.90;;;;;;4158769;28;20106;-61
2024/03/06 08:09:02;;;;;;;22.37;12.30;;;7.30;99.90;;;;;;4159478;28;20654;-61
2024/03/06 08:11:03;;;;;;;17.90;11.80;;;7.40;99.90;;;;;;4158324;28;20393;-60
2024/03/06 08:13:04;;;;;;;20.20;12.23;;;7.40;99.90;;;;;;4160243;28;20091;-61
2024/03/06 08:15:09;;;;;;;19.13;11.93;;;7.50;99.90;;;;;;4159070;28;20174;-62
2024/03/06 08:17:10;;;;;;;24.87;13.93;;;7.50;99.90;;;;;;4162286;28;20095;-58
2024/03/06 08:19:11;;;;;;;22.97;12.40;;;7.70;99.90;;;;;;4162101;28;20100;-59
2024/03/06 08:21:13;;;;;;;19.80;11.83;;;7.70;99.90;;;;;;4161637;28;20045;-61
2024/03/06 08:23:14;;;;;;;22.10;12.30;;;7.80;99.90;;;;;;4161677;28;20034;-60
2024/03/06 08:25:15;;;;;;;26.47;13.27;;;7.80;99.90;;;;;;4161792;28;20053;-63
2024/03/06 08:27:17;;;;;;;24.60;12.10;;;7.90;99.90;;;;;;4162051;28;20045;-60
2024/03/06 08:29:18;;;;;;;22.17;12.60;;;8.00;99.90;;;;;;4162116;28;20547;-60
2024/03/06 08:31:21;;;;;;;19.53;12.23;;;8.10;99.90;;;;;;4163275;28;20103;-59
2024/03/06 08:33:22;;;;;;;16.53;11.03;;;8.20;99.90;;;;;;4161002;28;20096;-62
2024/03/06 08:35:24;;;;;;;18.53;11.70;;;8.30;99.90;;;;;;4163143;28;20175;-61
2024/03/06 08:37:25;;;;;;;19.33;12.07;;;8.50;99.90;;;;;;4161830;28;20095;-59
2024/03/06 08:39:26;;;;;;;21.77;12.00;;;8.70;99.90;;;;;;4162907;28;20485;-60
2024/03/06 08:41:28;;;;;;;17.20;11.03;;;9.00;99.90;;;;;;4161085;28;20049;-61
2024/03/06 08:43:29;;;;;;;18.87;11.20;;;9.10;99.90;;;;;;4162145;28;20045;-61
2024/03/06 08:45:30;;;;;;;20.80;11.70;;;9.20;99.90;;;;;;4161824;28;20025;-60
2024/03/06 08:47:31;;;;;;;19.83;11.13;;;9.40;99.90;;;;;;4144992;28;20092;-60
2024/03/06 08:49:33;;;;;;;20.37;9.90;;;9.70;99.90;;;;;;4161801;28;20021;-60
2024/03/06 08:51:34;;;;;;;12.63;7.80;;;9.90;99.90;;;;;;4162661;28;20087;-61
2024/03/06 08:53:35;;;;;;;17.20;9.20;;;10.00;99.90;;;;;;4161469;28;20497;-58
2024/03/06 08:55:36;;;;;;;12.13;7.63;;;10.10;99.90;;;;;;4161910;28;20462;-60
2024/03/06 08:57:38;;;;;;;14.50;8.20;;;10.20;99.90;;;;;;4162226;28;20068;-55
2024/03/06 08:59:40;;;;;;;12.90;8.63;;;10.30;99.90;;;;;;4161962;28;20080;-62
2024/03/06 09:01:41;;;;;;;17.47;9.07;;;10.40;99.90;;;;;;4162579;28;20046;-63
2024/03/06 09:03:42;;;;;;;13.50;7.77;;;10.60;99.90;;;;;;4161163;28;20477;-62
2024/03/06 09:05:43;;;;;;;12.77;6.93;;;10.70;99.90;;;;;;4162630;28;20081;-61
2024/03/06 09:07:45;;;;;;;13.90;7.70;;;10.80;99.90;;;;;;4161458;28;20033;-61
2024/03/06 09:09:46;;;;;;;14.70;7.57;;;10.80;99.90;;;;;;4162532;28;20433;-60
2024/03/06 09:11:47;;;;;;;13.23;8.30;;;11.00;99.90;;;;;;4161022;28;20053;-58
2024/03/06 09:13:49;;;;;;;15.60;8.23;;;11.20;99.90;;;;;;4161968;28;20052;-62
2024/03/06 09:15:50;;;;;;;12.27;8.47;;;11.40;99.90;;;;;;4160728;28;20041;-60
2024/03/06 09:17:51;;;;;;;14.30;8.60;;;11.50;99.90;;;;;;4161139;28;20087;-57
2024/03/06 09:19:53;;;;;;;14.27;7.83;;;11.80;99.90;;;;;;4160314;28;20100;-59
2024/03/06 09:21:54;;;;;;;12.57;7.63;;;11.90;99.90;;;;;;4162068;28;20030;-60
2024/03/06 09:23:56;;;;;;;12.73;7.77;;;12.00;99.90;;;;;;4160578;28;20111;-62
2024/03/06 09:25:57;;;;;;;13.03;8.07;;;12.00;99.90;;;;;;4160555;28;20045;-62
2024/03/06 09:28:00;;;;;;;12.97;7.87;;;12.10;99.90;;;;;;4160776;28;20041;-58
2024/03/06 09:30:02;;;;;;;14.83;7.33;;;12.20;99.90;;;;;;4161387;28;20079;-61
2024/03/06 09:32:04;;;;;;;9.40;6.03;;;12.10;99.90;;;;;;4162024;28;20025;-60
2024/03/06 09:34:05;;;;;;;12.37;6.13;;;12.20;99.90;;;;;;4160376;28;20091;-62
2024/03/06 09:36:10;;;;;;;8.70;6.03;;;12.20;99.90;;;;;;4161190;28;20090;-61
2024/03/06 09:38:13;;;;;;;8.53;5.90;;;12.20;99.90;;;;;;4159240;28;20045;-59
2024/03/06 09:40:23;;;;;;;11.63;5.90;;;12.20;99.90;;;;;;4161160;28;20398;-61
2024/03/06 09:42:24;;;;;;;9.93;5.70;;;12.30;99.90;;;;;;4160859;28;20033;-60
2024/03/06 09:44:26;;;;;;;10.00;5.97;;;12.40;99.90;;;;;;4161965;28;20083;-60
2024/03/06 09:46:27;;;;;;;10.73;5.23;;;12.60;99.90;;;;;;4160134;28;20030;-59
2024/03/06 09:48:29;;;;;;;8.97;5.07;;;12.60;99.90;;;;;;4161963;28;20029;-60
2024/03/06 09:50:36;;;;;;;10.27;4.90;;;12.60;99.90;;;;;;4160506;28;20417;-57
2024/03/06 09:52:41;;;;;;;8.17;4.90;;;12.60;99.90;;;;;;4162105;28;20025;-61
2024/03/06 09:54:42;;;;;;;10.40;5.50;;;12.60;99.90;;;;;;4159464;28;20037;-60
2024/03/06 09:56:44;;;;;;;8.93;5.33;;;12.60;99.90;;;;;;4160912;28;20497;-61
2024/03/06 09:58:46;;;;;;;9.73;5.60;;;12.60;99.90;;;;;;4159811;28;20087;-63
2024/03/06 10:00:50;;;;;;;10.13;6.30;;;12.80;99.90;;;;;;4161393;28;20425;-61
2024/03/06 10:03:01;;;;;;;14.30;6.70;;;12.90;99.90;;;;;;4160317;28;20155;-61
2024/03/06 10:05:02;;;;;;;11.87;6.70;;;13.10;99.90;;;;;;4160638;28;20103;-56
2024/03/06 10:07:04;;;;;;;13.00;6.63;;;13.20;99.90;;;;;;4161157;28;20112;-59
2024/03/06 10:09:08;;;;;;;11.40;5.53;;;13.20;99.90;;;;;;4160587;28;20042;-57
2024/03/06 10:11:10;;;;;;;10.27;5.50;;;13.20;99.90;;;;;;4161021;28;20092;-61
2024/03/06 10:13:11;;;;;;;9.37;5.20;;;13.20;99.90;;;;;;4160457;28;20021;-56
2024/03/06 10:15:12;;;;;;;11.80;5.50;;;13.10;99.90;;;;;;4161515;28;20045;-58
2024/03/06 10:17:22;;;;;;;11.27;5.63;;;13.00;99.90;;;;;;4160559;28;20033;-59
2024/03/06 10:19:27;;;;;;;13.00;6.45;;;13.00;99.90;;;;;;4161235;28;20104;-60
2024/03/06 10:21:31;;;;;;;8.87;6.37;;;12.90;99.90;;;;;;4158967;28;20029;-57
2024/03/06 10:23:34;;;;;;;11.43;6.90;;;12.60;99.90;;;;;;4160887;28;20025;-58
2024/03/06 10:25:35;;;;;;;9.37;5.90;;;12.50;99.90;;;;;;4159712;28;20535;-60
2024/03/06 10:27:37;;;;;;;11.97;6.10;;;12.30;99.90;;;;;;4161082;28;20078;-59